Cobb County-Mc Collum Field Atlanta US
ICAO: KRYY
IATA: RYY
Category: Medium
Scheduled Services: No

Elevation: 1040 ft
TransAlt. 18000 ft.

Airport Communications:
ATLANTA APP/DEP:121
AWOS 3:128.125
CTAF:125.9
GND:119
MC COLLUM TWR:125.9
UNICOM:122.7

KRYY Zoom In..

Runways:

(A) RW 09 length 6311 ft width 100 ft
---- / hdg 93

(B) RW 27 length 6311 ft width 100 ft
ILS 111.90 / hdg 273

Location; KRYY
Day. 30 / Time. 21.50 Zulu
* Altimeter: 29.87
* Temperature: 02° c. 35.6°f.
* Wind from: 280° Speed 11 kn with Gusts up to 20 kn.
Dewpoint: 00° c.
Visibility: 10 Statute Miles.
Clouds: Broken 1300 ft.
Clouds: Overcast 3800 ft.

KRYY 302150Z 28011G20KT 10SM BKN013 OVC038 02/00 A2987 RMK AO2 UPB18E30 SLP840 T00220000 PNO $

Going to: --> -->


Wind From 280°
Speed 11 kn.

 
 
jpsmedia worldairports.se 2020   terms of use